HECA

Cairo International Airport

Cairo, Egypt
METAR HECA 232030Z 17007KT 6000 NSC 27/11 Q1011 NOSIG
Observed Flight Rules
Oct-23 @ 20:30 UTC (15 minutes ago) Marginal Visual Flight Rules
Wind Visibility Clouds
170° at 7 knots 6,003 meters
  • Clear skies
Temperatures Readings
Current 27°C / 81°F
Dewpoint 11°C / 52°F
Humidity 37%
Altimeter 29.85" Hg
Pressure 1011 hPa
Elevation 74
METAR HECA 232030Z 17007KT 6000 NSC 27/11 Q1011 NOSIG
Observed Flight Rules
Oct-23 @ 20:30 UTC
(15 minutes ago)
MVFR
Wind Visibility
170° at 7 knots 6,003 meters
Clouds
  • Clear skies
Temperature Dewpoint
27°C / 81°F 11°C / 52°F
Humidity Altimeter Pressure
37% 29.85" Hg 1011 hPa